KEAU

Chippewa Valley Regional Airport

Airport
ICAO code
KEAU
IATA Code
EAU
Summary
ICAO Region
NAM
ICAO Territory
Location

Eau Claire, Wisconsin

Serving
Eau Claire
Elevation
913 ft
Coordinates
44° 51' 47" N , 91° 28' 46" W
KCC
Airport CFIT
Altimeter Temperature Error Correction
Airport RE
Landing on Contaminated Runways
Metar
KEAU 191156Z 23006KT 10SM CLR 01/M06 A3003 RMK AO2 SLP178 T00111061 10039 20006 53001

Description

Chippewa Valley Regional Airport is a public use airport located 3.5 nm north of the central business district of the city of Eau Claire, in Chippewa County, Wisconsin, USA.

Airport map

Aerial View

SKYbrary Partners:

Safety knowledge contributed by: